createdAt,value
2022-11-24T00:01:16.464Z,15.38
2022-11-24T00:03:46.351Z,17.15
2022-11-24T00:06:15.875Z,14.60
2022-11-24T00:08:46.500Z,15.88
2022-11-24T00:11:20.083Z,19.17
2022-11-24T00:13:48.132Z,17.67
2022-11-24T00:16:25.165Z,15.98
2022-11-24T00:18:55.013Z,14.48
2022-11-24T00:21:23.497Z,20.02
2022-11-24T00:23:52.057Z,15.27
2022-11-24T00:26:24.780Z,16.27
2022-11-24T00:28:55.811Z,13.88
2022-11-24T00:31:26.370Z,16.10
2022-11-24T00:33:56.487Z,14.57
2022-11-24T00:36:26.409Z,13.63
2022-11-24T00:38:59.351Z,14.95
2022-11-24T00:41:28.738Z,14.82
2022-11-24T00:43:58.458Z,17.65
2022-11-24T00:46:27.089Z,16.77
2022-11-24T00:48:55.583Z,14.35
2022-11-24T00:51:30.209Z,17.08
2022-11-24T00:53:58.729Z,13.60
2022-11-24T00:56:28.005Z,14.35
2022-11-24T00:58:56.306Z,14.68
2022-11-24T01:01:27.112Z,16.25
2022-11-24T01:03:55.855Z,15.77
2022-11-24T01:06:25.871Z,15.60
2022-11-24T01:08:54.998Z,12.60
2022-11-24T01:11:28.596Z,17.77
2022-11-24T01:13:59.141Z,15.82
2022-11-24T01:16:33.478Z,16.27
2022-11-24T01:19:01.645Z,14.95
2022-11-24T01:21:29.606Z,13.50
2022-11-24T01:23:57.836Z,14.30
2022-11-24T01:26:26.003Z,12.98
2022-11-24T01:28:55.808Z,13.40
2022-11-24T01:31:24.634Z,14.57
2022-11-24T01:33:52.626Z,13.27
2022-11-24T01:36:20.880Z,12.05
2022-11-24T01:38:49.144Z,14.60
2022-11-24T01:41:25.068Z,13.52
2022-11-24T01:43:55.382Z,14.20
2022-11-24T01:46:34.231Z,14.15
2022-11-24T01:49:04.845Z,14.27
2022-11-24T01:51:37.086Z,14.27
2022-11-24T01:54:16.467Z,13.55
2022-11-24T01:56:48.203Z,14.80
2022-11-24T01:59:18.310Z,13.07
2022-11-24T02:01:48.605Z,13.38
2022-11-24T02:04:20.525Z,11.70
2022-11-24T02:06:48.873Z,11.00
2022-11-24T02:09:32.735Z,14.27
2022-11-24T02:12:02.086Z,13.27
2022-11-24T02:14:30.509Z,11.95
2022-11-24T02:16:58.226Z,12.98
2022-11-24T02:19:35.789Z,14.38
2022-11-24T02:22:04.434Z,11.35
2022-11-24T02:24:50.574Z,17.75
2022-11-24T02:27:20.005Z,14.32
2022-11-24T02:29:49.194Z,13.32
2022-11-24T02:32:18.343Z,15.60
2022-11-24T02:34:46.133Z,16.55
2022-11-24T02:37:13.753Z,11.57
2022-11-24T02:39:41.309Z,13.68
2022-11-24T02:42:12.908Z,14.32
2022-11-24T02:44:45.424Z,12.15
2022-11-24T02:47:13.166Z,12.00
2022-11-24T02:49:40.721Z,11.23
2022-11-24T02:52:08.862Z,20.75
2022-11-24T02:54:37.140Z,12.23
2022-11-24T02:57:05.256Z,9.30
2022-11-24T02:59:33.397Z,10.55
2022-11-24T03:02:01.325Z,12.73
2022-11-24T03:04:29.013Z,10.27
2022-11-24T03:06:57.655Z,11.30
2022-11-24T03:09:25.657Z,11.13
2022-11-24T03:11:53.544Z,10.85
2022-11-24T03:14:21.507Z,9.10
2022-11-24T03:16:49.472Z,13.07
2022-11-24T03:19:16.926Z,12.60
2022-11-24T03:21:44.425Z,10.45
2022-11-24T03:24:11.900Z,11.30
2022-11-24T03:26:40.017Z,10.73
2022-11-24T03:29:08.773Z,11.38
2022-11-24T03:31:36.874Z,14.68
2022-11-24T03:34:04.453Z,13.80
2022-11-24T03:36:31.956Z,12.50
2022-11-24T03:38:59.411Z,12.57
2022-11-24T03:41:26.901Z,14.30
2022-11-24T03:43:54.914Z,13.57
2022-11-24T03:46:22.594Z,12.15
2022-11-24T03:48:50.161Z,12.40
2022-11-24T03:51:18.285Z,10.23
2022-11-24T03:53:46.029Z,10.77
2022-11-24T03:56:14.424Z,10.68
2022-11-24T03:58:41.953Z,13.45
2022-11-24T04:01:09.643Z,10.02
2022-11-24T04:03:38.136Z,9.95
2022-11-24T04:06:06.064Z,10.93
2022-11-24T04:08:34.535Z,11.38
2022-11-24T04:11:02.487Z,13.25
2022-11-24T04:13:30.380Z,11.35
2022-11-24T04:15:57.912Z,12.55
2022-11-24T04:18:25.419Z,12.05
2022-11-24T04:20:53.092Z,12.75
2022-11-24T04:23:20.654Z,11.02
2022-11-24T04:25:48.806Z,10.98
2022-11-24T04:28:16.494Z,9.00
2022-11-24T04:30:45.136Z,9.88
2022-11-24T04:33:13.442Z,11.52
2022-11-24T04:35:41.017Z,8.77
2022-11-24T04:38:08.655Z,9.90
2022-11-24T04:40:36.925Z,9.75
2022-11-24T04:43:04.841Z,9.32
2022-11-24T04:45:32.844Z,9.07
2022-11-24T04:48:00.295Z,9.27
2022-11-24T04:50:27.801Z,8.63
2022-11-24T04:52:55.748Z,6.68
2022-11-24T04:55:23.741Z,7.25
2022-11-24T04:57:51.223Z,7.70
2022-11-24T05:00:19.540Z,7.13
2022-11-24T05:02:47.307Z,5.93
2022-11-24T05:05:15.190Z,6.43
2022-11-24T05:07:42.721Z,6.50
2022-11-24T05:10:28.818Z,7.15
2022-11-24T05:12:59.697Z,6.80
2022-11-24T05:15:27.789Z,8.43
2022-11-24T05:17:55.944Z,15.82
2022-11-24T05:20:24.019Z,7.32
2022-11-24T05:22:51.876Z,7.55
2022-11-24T05:25:19.552Z,7.35
2022-11-24T05:27:47.088Z,6.95
2022-11-24T05:30:14.919Z,6.90
2022-11-24T05:32:42.701Z,6.93
2022-11-24T05:35:10.616Z,6.90
2022-11-24T05:37:38.770Z,7.35
2022-11-24T05:40:07.459Z,7.03
2022-11-24T05:42:46.653Z,8.38
2022-11-24T05:45:20.254Z,7.05
2022-11-24T05:47:50.070Z,7.50
2022-11-24T05:50:20.003Z,9.35
2022-11-24T05:52:48.740Z,7.53
2022-11-24T05:55:16.416Z,7.13
2022-11-24T05:57:45.347Z,9.75
2022-11-24T06:00:13.922Z,9.20
2022-11-24T06:02:42.192Z,9.63
2022-11-24T06:05:10.241Z,11.45
2022-11-24T06:07:37.767Z,11.68
2022-11-24T06:10:05.693Z,10.48
2022-11-24T06:12:33.611Z,12.82
2022-11-24T06:15:01.232Z,11.02
2022-11-24T06:17:29.304Z,12.70
2022-11-24T06:19:56.917Z,11.57
2022-11-24T06:22:24.564Z,12.70
2022-11-24T06:24:52.252Z,13.13
2022-11-24T06:27:19.724Z,10.57
2022-11-24T06:29:47.726Z,10.88
2022-11-24T06:32:15.330Z,12.23
2022-11-24T06:34:44.041Z,12.73
2022-11-24T06:37:11.568Z,11.40
2022-11-24T06:39:39.072Z,10.52
2022-11-24T06:42:06.664Z,10.75
2022-11-24T06:44:34.442Z,11.38
2022-11-24T06:47:02.234Z,10.38
2022-11-24T06:49:30.228Z,11.68
2022-11-24T06:51:57.690Z,11.20
2022-11-24T06:54:25.571Z,11.85
2022-11-24T06:56:58.040Z,11.43
2022-11-24T06:59:26.602Z,10.65
2022-11-24T07:01:54.150Z,11.00
2022-11-24T07:04:22.107Z,9.35
2022-11-24T07:06:49.945Z,11.20
2022-11-24T07:09:17.868Z,11.13
2022-11-24T07:11:45.992Z,11.60
2022-11-24T07:14:13.606Z,11.70
2022-11-24T07:16:41.221Z,10.23
2022-11-24T07:19:10.021Z,12.30
2022-11-24T07:21:37.992Z,13.98
2022-11-24T07:24:06.385Z,13.88
2022-11-24T07:26:37.475Z,13.13
2022-11-24T07:29:05.718Z,13.52
2022-11-24T07:31:33.471Z,13.90
2022-11-24T07:34:01.572Z,15.05
2022-11-24T07:36:29.082Z,13.20
2022-11-24T07:38:56.673Z,13.98
2022-11-24T07:41:24.228Z,12.45
2022-11-24T07:43:51.973Z,12.10
2022-11-24T07:46:20.499Z,12.93
2022-11-24T07:48:48.371Z,12.35
2022-11-24T07:51:16.468Z,13.00
2022-11-24T07:53:45.716Z,12.52
2022-11-24T07:56:13.758Z,12.73
2022-11-24T07:58:41.530Z,14.00
2022-11-24T08:01:18.809Z,12.95
2022-11-24T08:03:46.949Z,11.93
2022-11-24T08:06:25.445Z,12.23
2022-11-24T08:08:55.972Z,12.35
2022-11-24T08:11:24.054Z,12.45
2022-11-24T08:13:51.918Z,11.13
2022-11-24T08:16:20.980Z,10.95
2022-11-24T08:18:56.467Z,13.45
2022-11-24T08:21:24.611Z,16.08
2022-11-24T08:23:58.404Z,16.67
2022-11-24T08:26:26.342Z,15.90
2022-11-24T08:28:56.515Z,14.70
2022-11-24T08:31:27.580Z,17.25
2022-11-24T08:33:56.122Z,16.08
2022-11-24T08:36:23.674Z,18.20
2022-11-24T08:38:55.873Z,18.73
2022-11-24T08:41:24.127Z,17.85
2022-11-24T08:43:52.128Z,15.93
2022-11-24T08:46:19.992Z,14.27
2022-11-24T08:48:50.234Z,12.68
2022-11-24T08:51:20.928Z,11.82
2022-11-24T08:53:48.893Z,14.25
2022-11-24T08:56:16.412Z,14.45
2022-11-24T08:58:44.487Z,15.88
2022-11-24T09:01:15.350Z,14.50
2022-11-24T09:03:50.456Z,13.40
2022-11-24T09:06:25.949Z,14.98
2022-11-24T09:08:54.564Z,13.95
2022-11-24T09:11:23.920Z,13.55
2022-11-24T09:13:51.936Z,12.73
2022-11-24T09:16:22.656Z,13.02
2022-11-24T09:18:58.858Z,13.80
2022-11-24T09:21:27.717Z,12.10
2022-11-24T09:23:55.737Z,10.95
2022-11-24T09:26:28.961Z,12.50
2022-11-24T09:28:58.174Z,12.55
2022-11-24T09:31:28.237Z,12.30
2022-11-24T09:33:56.391Z,13.40
2022-11-24T09:36:24.729Z,13.40
2022-11-24T09:38:53.275Z,14.50
2022-11-24T09:41:36.542Z,15.07
2022-11-24T09:44:12.761Z,15.85
2022-11-24T09:46:59.845Z,15.25
2022-11-24T09:49:35.203Z,16.33
2022-11-24T09:52:09.921Z,16.38
2022-11-24T09:54:41.653Z,15.55
2022-11-24T09:57:12.856Z,17.05
2022-11-24T09:59:42.317Z,15.90
2022-11-24T10:02:13.539Z,17.48
2022-11-24T10:04:46.957Z,17.45
2022-11-24T10:07:38.252Z,17.80
2022-11-24T10:10:28.488Z,18.20
2022-11-24T10:13:28.347Z,18.10
2022-11-24T10:16:17.866Z,18.05
2022-11-24T10:19:00.978Z,20.30
2022-11-24T10:21:28.537Z,18.63
2022-11-24T10:24:00.087Z,18.83
2022-11-24T10:26:36.850Z,19.95
2022-11-24T10:29:20.775Z,19.80
2022-11-24T10:31:51.469Z,19.05
2022-11-24T10:34:28.851Z,18.30
2022-11-24T10:37:26.477Z,18.45
2022-11-24T10:40:04.166Z,18.90
2022-11-24T10:42:40.448Z,19.08
2022-11-24T10:45:17.884Z,20.70
2022-11-24T10:47:46.991Z,20.83
2022-11-24T10:50:21.862Z,20.75
2022-11-24T10:53:08.175Z,21.08
2022-11-24T10:56:06.014Z,20.35
2022-11-24T10:58:39.321Z,19.92
2022-11-24T11:01:12.917Z,20.98
2022-11-24T11:06:23.675Z,21.88
2022-11-24T11:09:17.809Z,21.48
2022-11-24T11:11:49.238Z,19.67
2022-11-24T11:14:32.985Z,20.73
2022-11-24T11:17:00.557Z,20.95
2022-11-24T11:20:00.089Z,22.30
2022-11-24T11:22:32.929Z,20.10
2022-11-24T11:25:07.320Z,21.55
2022-11-24T11:27:35.388Z,22.67
2022-11-24T11:38:40.766Z,23.15
2022-11-24T11:41:19.525Z,23.20
2022-11-24T11:43:51.204Z,22.13
2022-11-24T11:46:18.973Z,21.20
2022-11-24T11:48:48.115Z,22.15
2022-11-24T11:51:54.585Z,23.50
2022-11-24T11:54:34.719Z,22.63
2022-11-24T11:57:17.439Z,20.58
2022-11-24T11:59:51.316Z,22.88
2022-11-24T12:02:32.231Z,22.33
2022-11-24T12:05:06.811Z,21.90
2022-11-24T12:07:37.417Z,22.38
2022-11-24T12:10:14.443Z,22.02
2022-11-24T12:13:06.730Z,22.95
2022-11-24T12:15:43.786Z,21.17
2022-11-24T12:18:57.118Z,21.60
2022-11-24T12:21:34.398Z,22.07
2022-11-24T12:24:05.386Z,22.02
2022-11-24T12:26:56.375Z,20.55
2022-11-24T12:29:36.116Z,22.67
2022-11-24T12:32:35.065Z,21.20
2022-11-24T12:35:16.769Z,21.05
2022-11-24T12:38:12.392Z,21.23
2022-11-24T12:44:04.512Z,20.05
2022-11-24T12:47:13.606Z,21.77
2022-11-24T12:50:06.701Z,24.60
2022-11-24T12:53:00.949Z,21.73
2022-11-24T12:58:00.399Z,19.67
2022-11-24T13:00:34.577Z,20.65
2022-11-24T13:03:50.659Z,20.42
2022-11-24T13:06:45.855Z,19.45
2022-11-24T13:09:16.889Z,18.95
2022-11-24T13:12:06.759Z,20.08
2022-11-24T13:14:38.008Z,19.25
2022-11-24T13:20:40.802Z,17.30
2022-11-24T13:23:25.506Z,16.02
2022-11-24T13:26:30.323Z,17.48
2022-11-24T13:29:23.898Z,16.60
2022-11-24T13:31:56.702Z,16.02
2022-11-24T13:34:39.604Z,17.15
2022-11-24T13:37:40.834Z,15.63
2022-11-24T13:40:12.197Z,15.32
2022-11-24T13:42:55.340Z,15.65
2022-11-24T13:45:38.824Z,14.73
2022-11-24T13:48:22.475Z,15.15
2022-11-24T13:50:51.919Z,14.70
2022-11-24T13:53:32.234Z,14.88
2022-11-24T13:56:07.765Z,14.98
2022-11-24T13:58:38.749Z,13.75
2022-11-24T14:01:13.345Z,14.13
2022-11-24T14:04:28.095Z,14.02
2022-11-24T14:06:45.087Z,16.45
2022-11-24T14:09:21.960Z,12.90
2022-11-24T14:12:07.460Z,12.63
2022-11-24T14:14:35.563Z,12.55
2022-11-24T14:17:13.491Z,13.45
2022-11-24T14:19:42.480Z,11.77
2022-11-24T14:22:20.925Z,13.05
2022-11-24T14:25:00.687Z,12.88
2022-11-24T14:27:40.119Z,13.60
2022-11-24T14:30:08.203Z,13.57
2022-11-24T14:32:37.888Z,13.50
2022-11-24T14:35:27.238Z,13.18
2022-11-24T14:37:56.079Z,12.88
2022-11-24T14:40:45.155Z,13.27
2022-11-24T14:43:20.750Z,14.18
2022-11-24T14:45:55.221Z,13.82
2022-11-24T14:48:33.227Z,14.43
2022-11-24T14:51:14.862Z,16.10
2022-11-24T14:53:49.027Z,15.30
2022-11-24T14:56:40.509Z,16.98
2022-11-24T14:59:25.640Z,16.60
2022-11-24T15:01:53.940Z,16.83
2022-11-24T15:07:27.232Z,16.65
2022-11-24T15:10:00.796Z,17.52
2022-11-24T15:12:42.712Z,17.50
2022-11-24T15:15:13.911Z,17.27
2022-11-24T15:17:50.850Z,17.60
2022-11-24T15:20:27.138Z,17.55
2022-11-24T15:23:16.100Z,19.45
2022-11-24T15:25:44.174Z,18.25
2022-11-24T15:28:12.162Z,18.17
2022-11-24T15:30:40.248Z,18.38
2022-11-24T15:33:17.345Z,19.77
2022-11-24T15:35:45.928Z,18.42
2022-11-24T15:38:14.057Z,17.92
2022-11-24T15:40:44.518Z,18.35
2022-11-24T15:43:38.718Z,18.75
2022-11-24T15:46:07.758Z,18.08
2022-11-24T15:48:35.872Z,22.05
2022-11-24T15:51:07.044Z,20.98
2022-11-24T15:53:48.165Z,21.50
2022-11-24T15:56:23.595Z,20.67
2022-11-24T15:58:51.917Z,21.95
2022-11-24T16:01:21.774Z,20.15
2022-11-24T16:03:49.663Z,23.13
2022-11-24T16:06:24.719Z,24.20
2022-11-24T16:08:54.293Z,23.02
2022-11-24T16:11:23.432Z,21.15
2022-11-24T16:13:53.955Z,21.90
2022-11-24T16:16:23.470Z,21.88
2022-11-24T16:18:51.557Z,21.15
2022-11-24T16:21:19.199Z,22.55
2022-11-24T16:23:47.833Z,20.08
2022-11-24T16:26:15.386Z,22.55
2022-11-24T16:28:45.790Z,23.30
2022-11-24T16:31:16.260Z,27.08
2022-11-24T16:33:45.354Z,28.20
2022-11-24T16:36:14.104Z,29.25
2022-11-24T16:38:42.150Z,25.10
2022-11-24T16:41:10.693Z,25.50
2022-11-24T16:43:38.856Z,26.45
2022-11-24T16:46:17.356Z,26.60
2022-11-24T16:48:46.499Z,28.98
2022-11-24T16:51:35.730Z,27.40
2022-11-24T16:54:03.781Z,30.42
2022-11-24T16:56:31.929Z,30.15
2022-11-24T16:58:59.814Z,28.00
2022-11-24T17:01:27.847Z,27.85
2022-11-24T17:03:56.149Z,28.00
2022-11-24T17:06:23.843Z,27.55
2022-11-24T17:08:51.381Z,28.60
2022-11-24T17:11:22.343Z,29.20
2022-11-24T17:13:50.639Z,27.85
2022-11-24T17:16:23.311Z,31.67
2022-11-24T17:18:51.128Z,33.10
2022-11-24T17:21:24.332Z,34.17
2022-11-24T17:23:56.637Z,35.33
2022-11-24T17:26:25.374Z,37.70
2022-11-24T17:28:54.072Z,33.30
2022-11-24T17:31:28.816Z,34.63
2022-11-24T17:33:58.415Z,33.55
2022-11-24T17:36:27.907Z,34.45
2022-11-24T17:38:55.924Z,46.85
2022-11-24T17:41:23.912Z,45.03
2022-11-24T17:43:55.542Z,47.67
2022-11-24T17:46:27.888Z,37.17
2022-11-24T17:48:56.376Z,35.60
2022-11-24T17:51:25.907Z,41.80
2022-11-24T17:53:54.765Z,39.10
2022-11-24T17:56:28.262Z,47.42
2022-11-24T17:58:58.566Z,55.75
2022-11-24T18:01:30.242Z,52.28
2022-11-24T18:03:58.376Z,49.85
2022-11-24T18:06:28.742Z,47.85
2022-11-24T18:08:57.789Z,47.10
2022-11-24T18:11:32.067Z,44.40
2022-11-24T18:14:02.667Z,41.75
2022-11-24T18:16:35.317Z,39.28
2022-11-24T18:19:09.215Z,41.15
2022-11-24T18:21:43.791Z,38.13
2022-11-24T18:24:13.052Z,44.25
2022-11-24T18:26:42.163Z,48.65
2022-11-24T18:29:11.578Z,43.78
2022-11-24T18:31:40.289Z,45.38
2022-11-24T18:34:08.015Z,45.70
2022-11-24T18:36:35.962Z,47.10
2022-11-24T18:39:06.047Z,49.22
2022-11-24T18:41:34.006Z,54.42
2022-11-24T18:44:03.209Z,49.17
2022-11-24T18:46:30.919Z,46.25
2022-11-24T18:48:59.392Z,45.42
2022-11-24T18:51:27.257Z,41.72
2022-11-24T18:53:54.899Z,39.58
2022-11-24T18:56:22.499Z,43.60
2022-11-24T18:58:56.554Z,38.33
2022-11-24T19:01:27.001Z,40.90
2022-11-24T19:03:57.093Z,39.92
2022-11-24T19:06:29.076Z,40.63
2022-11-24T19:08:56.876Z,37.70
2022-11-24T19:11:28.205Z,39.17
2022-11-24T19:13:56.936Z,35.85
2022-11-24T19:16:25.278Z,43.25
2022-11-24T19:18:57.271Z,42.05
2022-11-24T19:21:24.901Z,40.88
2022-11-24T19:23:53.143Z,42.72
2022-11-24T19:26:20.995Z,42.13
2022-11-24T19:28:49.155Z,42.95
2022-11-24T19:31:18.862Z,43.58
2022-11-24T19:33:47.030Z,54.60
2022-11-24T19:36:17.165Z,53.85
2022-11-24T19:38:53.759Z,55.70
2022-11-24T19:41:24.119Z,54.80
2022-11-24T19:43:55.057Z,53.33
2022-11-24T19:46:27.200Z,53.90
2022-11-24T19:48:59.750Z,53.33
2022-11-24T19:51:33.181Z,55.00
2022-11-24T19:54:01.750Z,54.50
2022-11-24T19:56:34.088Z,57.63
2022-11-24T19:59:04.157Z,48.45
2022-11-24T20:01:39.880Z,48.88
2022-11-24T20:04:13.594Z,48.00
2022-11-24T20:06:44.281Z,44.92
2022-11-24T20:09:17.915Z,49.75
2022-11-24T20:11:46.354Z,47.55
2022-11-24T20:14:15.726Z,43.20
2022-11-24T20:16:45.624Z,39.00
2022-11-24T20:19:15.845Z,38.40
2022-11-24T20:21:47.725Z,38.53
2022-11-24T20:24:21.585Z,35.92
2022-11-24T20:26:52.154Z,42.22
2022-11-24T20:29:20.625Z,36.72
2022-11-24T20:31:51.380Z,36.88
2022-11-24T20:34:20.334Z,33.92
2022-11-24T20:36:48.382Z,34.17
2022-11-24T20:39:23.883Z,41.35
2022-11-24T20:41:52.414Z,31.85
2022-11-24T20:44:22.135Z,34.40
2022-11-24T20:46:50.299Z,33.63
2022-11-24T20:49:22.232Z,42.22
2022-11-24T20:51:54.321Z,43.17
2022-11-24T20:54:22.221Z,42.75
2022-11-24T20:56:50.226Z,34.00
2022-11-24T20:59:21.616Z,41.67
2022-11-24T21:01:50.205Z,41.50
2022-11-24T21:04:21.132Z,32.67
2022-11-24T21:06:49.892Z,33.10
2022-11-24T21:09:18.375Z,46.33
2022-11-24T21:11:46.287Z,41.45
2022-11-24T21:14:14.851Z,42.92
2022-11-24T21:16:42.922Z,48.28
2022-11-24T21:19:13.896Z,44.40
2022-11-24T21:21:42.924Z,42.97
2022-11-24T21:24:14.827Z,43.28
2022-11-24T21:26:47.397Z,40.58
2022-11-24T21:29:22.285Z,38.13
2022-11-24T21:31:50.461Z,37.25
2022-11-24T21:34:19.493Z,42.85
2022-11-24T21:36:47.460Z,35.15
2022-11-24T21:39:16.414Z,30.63
2022-11-24T21:41:44.336Z,31.70
2022-11-24T21:44:13.726Z,30.27
2022-11-24T21:46:48.193Z,32.05
2022-11-24T21:49:18.710Z,29.70
2022-11-24T21:51:47.111Z,30.77
2022-11-24T21:54:15.286Z,31.00
2022-11-24T21:56:42.858Z,33.30
2022-11-24T21:59:10.699Z,33.28
2022-11-24T22:01:38.335Z,33.63
2022-11-24T22:04:06.399Z,34.60
2022-11-24T22:06:34.010Z,41.00
2022-11-24T22:09:01.690Z,34.50
2022-11-24T22:11:29.181Z,38.92
2022-11-24T22:13:56.654Z,37.08
2022-11-24T22:16:25.997Z,34.05
2022-11-24T22:18:54.028Z,33.83
2022-11-24T22:21:24.337Z,32.97
2022-11-24T22:23:52.819Z,33.42
2022-11-24T22:26:23.073Z,28.77
2022-11-24T22:28:51.848Z,30.00
2022-11-24T22:31:21.931Z,31.35
2022-11-24T22:33:50.356Z,28.80
2022-11-24T22:36:20.931Z,29.83
2022-11-24T22:38:53.945Z,28.08
2022-11-24T22:41:22.060Z,26.83
2022-11-24T22:43:50.739Z,29.50
2022-11-24T22:46:24.266Z,27.63
2022-11-24T22:48:53.149Z,27.30
2022-11-24T22:51:25.316Z,27.05
2022-11-24T22:53:55.587Z,27.58
2022-11-24T22:56:24.151Z,27.85
2022-11-24T22:58:51.752Z,29.38
2022-11-24T23:01:22.094Z,27.65
2022-11-24T23:03:53.774Z,27.85
2022-11-24T23:06:26.607Z,31.92
2022-11-24T23:08:55.822Z,31.90
2022-11-24T23:11:36.241Z,31.42
2022-11-24T23:14:07.734Z,28.33
2022-11-24T23:16:36.282Z,32.00
2022-11-24T23:19:04.265Z,32.50
2022-11-24T23:21:34.702Z,27.95
2022-11-24T23:24:03.594Z,28.60
2022-11-24T23:26:34.431Z,29.10
2022-11-24T23:29:02.458Z,30.17
2022-11-24T23:31:30.865Z,29.13
2022-11-24T23:34:00.883Z,30.77
2022-11-24T23:36:30.131Z,28.58
2022-11-24T23:39:03.006Z,30.45
2022-11-24T23:41:31.787Z,30.53
2022-11-24T23:44:00.244Z,31.98
2022-11-24T23:46:28.816Z,31.40
2022-11-24T23:48:56.893Z,30.88
2022-11-24T23:51:32.176Z,31.98
2022-11-24T23:54:00.699Z,29.08
2022-11-24T23:56:33.506Z,33.47
2022-11-24T23:59:03.212Z,31.42
